Time;durP1;ratioP1;P1;durP2;ratioP2;P2;SDS_P1;SDS_P2;PMS_P1;PMS_P2;Temp;Humidity;BMP_temperature;BMP_pressure;BME280_temperature;BME280_humidity;BME280_pressure;Samples;Min_cycle;Max_cycle;Signal;HPM_P1;HPM_P2
2024/01/18 00:00:20;;;;;;;9.80;6.20;;;;;;;5.04;100.00;100903.91;2084957;28;20286;-68
2024/01/18 00:01:20;;;;;;;9.80;6.53;;;;;;;5.02;100.00;100892.50;2084808;28;20285;-68
2024/01/18 00:02:22;;;;;;;8.83;5.80;;;;;;;4.97;100.00;100892.88;2084554;28;20191;-68
2024/01/18 00:03:23;;;;;;;9.52;5.93;;;;;;;5.00;100.00;100894.88;2085517;28;20200;-68
2024/01/18 00:04:23;;;;;;;10.10;6.00;;;;;;;5.00;100.00;100891.31;2087225;28;20186;-68
2024/01/18 00:05:24;;;;;;;9.10;5.40;;;;;;;5.01;100.00;100881.91;2085611;28;20194;-68
2024/01/18 00:06:25;;;;;;;10.60;5.87;;;;;;;4.97;100.00;100883.88;2085602;28;20207;-68
2024/01/18 00:07:26;;;;;;;13.75;6.97;;;;;;;4.93;100.00;100874.84;2084471;28;20190;-68
2024/01/18 00:08:26;;;;;;;11.00;6.53;;;;;;;4.98;100.00;100885.44;2084564;28;20674;-68
2024/01/18 00:09:27;;;;;;;9.43;5.63;;;;;;;4.98;100.00;100888.19;2085294;28;20263;-67
2024/01/18 00:10:28;;;;;;;12.57;6.77;;;;;;;4.95;100.00;100883.47;2087095;28;20188;-67
2024/01/18 00:11:28;;;;;;;13.90;6.40;;;;;;;4.94;100.00;100893.69;2085596;28;20622;-68
2024/01/18 00:12:29;;;;;;;9.93;6.00;;;;;;;3.88;100.00;100724.31;2085452;28;20439;-67
2024/01/18 00:13:29;;;;;;;13.47;6.03;;;;;;;4.95;100.00;100892.50;2085380;28;20200;-68
2024/01/18 00:14:30;;;;;;;9.70;5.80;;;;;;;4.96;100.00;100887.78;2084833;28;20192;-68
2024/01/18 00:15:30;;;;;;;14.97;6.23;;;;;;;4.91;100.00;100885.41;2085483;28;20216;-67
2024/01/18 00:16:33;;;;;;;10.93;5.47;;;;;;;4.54;100.00;100827.25;2087654;28;20188;-67
2024/01/18 00:17:33;;;;;;;11.68;5.57;;;;;;;4.77;100.00;100858.69;2084628;28;20191;-67
2024/01/18 00:18:34;;;;;;;9.27;6.13;;;;;;;4.83;100.00;100870.09;2085530;28;20281;-67
2024/01/18 00:19:34;;;;;;;8.90;5.53;;;;;;;4.91;100.00;100883.47;2086122;28;20190;-67
2024/01/18 00:20:35;;;;;;;9.77;6.40;;;;;;;4.89;100.00;100877.59;2085123;28;20185;-67
2024/01/18 00:21:36;;;;;;;12.03;5.80;;;;;;;4.06;100.00;100746.31;2085971;28;20235;-68
2024/01/18 00:22:37;;;;;;;9.87;5.53;;;;;;;4.88;100.00;100878.72;2087602;28;20314;-67
2024/01/18 00:23:37;;;;;;;11.90;6.07;;;;;;;4.87;100.00;100888.16;2084907;28;20586;-67
2024/01/18 00:24:38;;;;;;;11.00;5.83;;;;;;;4.84;100.00;100885.41;2085653;28;20551;-68
2024/01/18 00:25:38;;;;;;;9.47;5.37;;;;;;;4.83;100.00;100892.06;2085182;28;20205;-68
2024/01/18 00:26:39;;;;;;;10.23;6.53;;;;;;;4.71;100.00;100868.47;2085238;28;20612;-67
2024/01/18 00:27:39;;;;;;;10.57;5.40;;;;;;;4.81;100.00;100881.47;2083680;28;20716;-67
2024/01/18 00:28:39;;;;;;;11.17;5.67;;;;;;;4.84;100.00;100866.97;2087765;28;20774;-67
2024/01/18 00:29:40;;;;;;;11.80;6.00;;;;;;;4.79;100.00;100861.84;2085224;28;20723;-67
2024/01/18 00:30:40;;;;;;;10.47;5.87;;;;;;;4.85;100.00;100871.28;2083966;28;20859;-68
2024/01/18 00:31:41;;;;;;;10.93;6.00;;;;;;;4.85;100.00;100881.47;2085657;28;20304;-67
2024/01/18 00:32:41;;;;;;;9.13;6.07;;;;;;;4.83;100.00;100878.34;2085657;28;20226;-68
2024/01/18 00:33:42;;;;;;;10.50;5.50;;;;;;;4.79;100.00;100881.06;2084468;28;20184;-67
2024/01/18 00:34:43;;;;;;;9.57;5.57;;;;;;;4.79;100.00;100878.34;2087089;28;20821;-68
2024/01/18 00:35:43;;;;;;;11.43;5.97;;;;;;;4.80;100.00;100888.13;2085245;28;20207;-68
2024/01/18 00:36:46;;;;;;;11.97;6.20;;;;;;;4.42;100.00;100828.38;2085531;28;20200;-68
2024/01/18 00:37:47;;;;;;;10.85;6.03;;;;;;;4.07;100.00;100767.09;2084283;28;20269;-68
2024/01/18 00:38:47;;;;;;;11.93;6.13;;;;;;;4.79;100.00;100889.31;2085338;28;20188;-67
2024/01/18 00:39:48;;;;;;;10.07;5.80;;;;;;;4.38;100.00;100832.28;2084889;28;20188;-68
2024/01/18 00:40:48;;;;;;;12.33;6.80;;;;;;;4.77;100.00;100886.16;2086819;28;20191;-68
2024/01/18 00:41:49;;;;;;;9.67;5.20;;;;;;;4.79;100.00;100888.50;2085188;28;20196;-68
2024/01/18 00:42:49;;;;;;;10.07;6.07;;;;;;;4.78;100.00;100889.69;2084494;28;20329;-68
2024/01/18 00:43:50;;;;;;;8.63;5.20;;;;;;;4.78;100.00;100895.94;2084641;28;20221;-67
2024/01/18 00:44:50;;;;;;;13.67;5.90;;;;;;;4.77;100.00;100888.91;2085633;28;20187;-67
2024/01/18 00:45:51;;;;;;;8.53;5.20;;;;;;;4.78;100.00;100892.44;2085307;28;20191;-68
2024/01/18 00:46:52;;;;;;;13.40;6.00;;;;;;;4.75;100.00;100890.44;2087320;28;20184;-68
2024/01/18 00:47:52;;;;;;;11.77;6.60;;;;;;;4.75;100.00;100888.50;2084605;28;20218;-67
2024/01/18 00:48:53;;;;;;;11.57;6.60;;;;;;;4.76;100.00;100887.31;2084560;28;20233;-68
2024/01/18 00:49:53;;;;;;;11.53;5.97;;;;;;;4.77;100.00;100883.41;2084732;28;20195;-68
2024/01/18 00:50:54;;;;;;;14.87;6.63;;;;;;;4.78;100.00;100882.22;2084967;28;20274;-67
2024/01/18 00:51:54;;;;;;;11.13;6.07;;;;;;;4.82;100.00;100885.78;2085338;28;20180;-67
2024/01/18 00:52:55;;;;;;;10.60;5.87;;;;;;;4.79;100.00;100878.34;2086669;28;20180;-67
2024/01/18 00:53:55;;;;;;;10.20;5.43;;;;;;;4.81;100.00;100873.22;2084865;28;20697;-68
2024/01/18 00:54:56;;;;;;;12.00;6.03;;;;;;;4.81;100.00;100866.94;2086016;28;20191;-68
2024/01/18 00:55:56;;;;;;;9.97;5.57;;;;;;;4.80;100.00;100870.84;2084061;28;20192;-68
2024/01/18 00:56:57;;;;;;;10.30;6.00;;;;;;;4.79;100.00;100870.09;2084762;28;20608;-68
2024/01/18 00:57:58;;;;;;;9.07;5.90;;;;;;;4.79;100.00;100872.84;2084924;28;20181;-67
2024/01/18 00:58:58;;;;;;;10.10;6.53;;;;;;;4.83;100.00;100868.13;2087327;28;20238;-68
2024/01/18 00:59:59;;;;;;;12.17;6.20;;;;;;;3.53;100.00;100665.78;2085161;28;20253;-67
2024/01/18 01:01:00;;;;;;;10.73;6.10;;;;;;;4.78;100.00;100876.72;2084281;28;20231;-67
2024/01/18 01:02:00;;;;;;;11.67;6.10;;;;;;;4.80;100.00;100865.38;2084957;28;20187;-67
2024/01/18 01:03:01;;;;;;;13.43;6.47;;;;;;;4.81;100.00;100855.94;2084942;28;20190;-68
2024/01/18 01:04:01;;;;;;;11.30;5.97;;;;;;;4.78;100.00;100852.03;2084946;28;20656;-67
2024/01/18 01:05:02;;;;;;;10.23;5.60;;;;;;;4.80;100.00;100848.91;2087233;28;20219;-68
2024/01/18 01:06:04;;;;;;;10.40;5.87;;;;;;;4.77;100.00;100850.47;2085235;28;20192;-68
2024/01/18 01:07:04;;;;;;;9.52;5.65;;;;;;;4.75;100.00;100841.84;2084304;28;20255;-67
2024/01/18 01:08:05;;;;;;;10.77;6.03;;;;;;;4.77;100.00;100844.19;2085183;28;20205;-67
2024/01/18 01:09:06;;;;;;;12.33;6.20;;;;;;;4.76;100.00;100842.59;2085372;28;20192;-67
2024/01/18 01:10:07;;;;;;;9.20;5.80;;;;;;;4.80;100.00;100843.41;2085013;28;20199;-67
2024/01/18 01:11:10;;;;;;;15.57;6.90;;;;;;;4.04;100.00;100713.81;2085905;28;20688;-67
2024/01/18 01:12:10;;;;;;;12.10;6.05;;;;;;;4.49;100.00;100784.50;2084253;28;20203;-67
2024/01/18 01:13:11;;;;;;;14.23;6.73;;;;;;;4.78;100.00;100832.03;2084760;28;20200;-68
2024/01/18 01:14:11;;;;;;;11.43;6.37;;;;;;;4.79;100.00;100825.38;2084690;28;20189;-67
2024/01/18 01:15:12;;;;;;;14.40;6.90;;;;;;;4.79;100.00;100826.16;2085236;28;20541;-68
2024/01/18 01:16:12;;;;;;;12.70;7.17;;;;;;;4.79;100.00;100822.63;2084396;28;20658;-67
2024/01/18 01:17:13;;;;;;;12.07;6.60;;;;;;;4.79;100.00;100822.63;2086176;28;20222;-68
2024/01/18 01:18:14;;;;;;;10.70;6.27;;;;;;;4.80;100.00;100813.19;2084652;28;20279;-67
2024/01/18 01:19:14;;;;;;;11.90;6.37;;;;;;;4.80;100.00;100814.00;2085127;28;20204;-67
2024/01/18 01:20:15;;;;;;;11.87;6.40;;;;;;;4.78;100.00;100813.59;2086890;28;20180;-68
2024/01/18 01:21:15;;;;;;;12.83;7.17;;;;;;;4.83;100.00;100817.94;2083965;28;20639;-68
2024/01/18 01:22:16;;;;;;;11.97;6.10;;;;;;;4.80;100.00;100824.97;2084716;28;20712;-68
2024/01/18 01:23:16;;;;;;;12.57;6.37;;;;;;;4.82;100.00;100822.63;2083898;28;20271;-67
2024/01/18 01:24:17;;;;;;;11.47;6.67;;;;;;;4.85;100.00;100819.13;2084704;28;20213;-68
2024/01/18 01:25:17;;;;;;;11.30;6.57;;;;;;;4.80;100.00;100816.75;2086679;28;20192;-67
2024/01/18 01:26:18;;;;;;;10.17;6.20;;;;;;;4.75;100.00;100819.88;2085117;28;20239;-68
2024/01/18 01:27:18;;;;;;;13.33;6.17;;;;;;;4.77;100.00;100816.75;2084231;28;20845;-67
2024/01/18 01:28:19;;;;;;;9.67;6.03;;;;;;;4.69;100.00;100821.44;2085192;28;20203;-67
2024/01/18 01:29:19;;;;;;;12.37;5.37;;;;;;;4.64;100.00;100819.06;2085038;28;20191;-67
2024/01/18 01:30:21;;;;;;;10.47;5.87;;;;;;;4.63;100.00;100809.25;2085577;28;20229;-68
2024/01/18 01:31:22;;;;;;;7.40;4.75;;;;;;;4.48;100.00;100791.19;2086566;28;20193;-67
2024/01/18 01:32:22;;;;;;;9.47;5.67;;;;;;;4.66;100.00;100804.94;2085086;28;20689;-67
2024/01/18 01:33:23;;;;;;;13.33;5.93;;;;;;;4.67;100.00;100809.25;2084230;28;20200;-67
2024/01/18 01:34:23;;;;;;;12.37;6.50;;;;;;;4.20;100.00;100735.44;2083835;28;20222;-68
2024/01/18 01:35:24;;;;;;;12.90;6.67;;;;;;;4.67;100.00;100809.25;2084140;28;20185;-68
2024/01/18 01:36:24;;;;;;;9.43;5.03;;;;;;;4.61;100.00;100806.09;2085643;28;20208;-67
2024/01/18 01:37:25;;;;;;;10.97;5.53;;;;;;;4.60;100.00;100806.47;2085741;28;20187;-67
2024/01/18 01:38:25;;;;;;;10.83;5.27;;;;;;;4.62;100.00;100807.66;2085122;28;20250;-67
2024/01/18 01:39:26;;;;;;;10.17;5.83;;;;;;;3.97;100.00;100719.28;2084443;28;20211;-67
2024/01/18 01:40:26;;;;;;;9.13;4.70;;;;;;;4.22;100.00;100757.75;2083500;28;20571;-67
2024/01/18 01:41:27;;;;;;;11.27;5.47;;;;;;;4.22;100.00;100750.31;2084534;28;20235;-67
2024/01/18 01:42:27;;;;;;;10.10;5.37;;;;;;;4.51;100.00;100801.34;2085866;28;20192;-68
2024/01/18 01:43:28;;;;;;;8.77;4.87;;;;;;;4.15;100.00;100758.50;2086495;28;20739;-68
2024/01/18 01:44:29;;;;;;;11.33;5.60;;;;;;;4.40;100.00;100789.56;2084526;28;20616;-67
2024/01/18 01:45:29;;;;;;;11.77;4.87;;;;;;;4.44;100.00;100784.88;2084501;28;20272;-67
2024/01/18 01:46:30;;;;;;;10.60;5.80;;;;;;;4.49;100.00;100790.00;2084375;28;20197;-67
2024/01/18 01:47:30;;;;;;;11.73;5.43;;;;;;;4.43;100.00;100788.00;2084238;28;20184;-67
2024/01/18 01:48:31;;;;;;;8.83;5.50;;;;;;;4.50;100.00;100802.53;2086816;28;20264;-67
2024/01/18 01:49:31;;;;;;;10.03;5.20;;;;;;;4.50;100.00;100804.47;2085474;28;20196;-68
2024/01/18 01:50:32;;;;;;;9.87;5.90;;;;;;;4.46;100.00;100798.22;2083080;28;20681;-68
2024/01/18 01:51:41;;;;;;;12.07;5.90;;;;;;;4.46;100.00;100779.00;2084375;28;20192;-67
2024/01/18 01:52:44;;;;;;;10.50;5.78;;;;;;;4.44;100.00;100786.81;2084957;28;20258;-68
2024/01/18 01:53:45;;;;;;;9.93;5.70;;;;;;;4.04;100.00;100740.44;2084285;28;20196;-67
2024/01/18 01:54:47;;;;;;;8.73;5.43;;;;;;;4.31;100.00;100780.13;2084938;28;20184;-67
2024/01/18 01:55:47;;;;;;;10.55;5.45;;;;;;;4.32;100.00;100796.19;2086849;28;20208;-68
2024/01/18 01:56:53;;;;;;;10.67;5.33;;;;;;;3.30;100.00;100655.13;2084833;28;20192;-67
2024/01/18 01:57:53;;;;;;;8.45;4.80;;;;;;;4.08;100.00;100785.13;2083634;28;20581;-67
2024/01/18 01:58:54;;;;;;;10.90;5.97;;;;;;;3.45;100.00;100691.59;2084733;28;20242;-67
2024/01/18 01:59:55;;;;;;;10.80;5.47;;;;;;;3.26;100.00;100668.00;2085170;28;20208;-67
2024/01/18 02:00:56;;;;;;;11.77;5.57;;;;;;;4.05;100.00;100783.16;2084529;28;20268;-67
2024/01/18 02:01:57;;;;;;;8.20;4.53;;;;;;;4.04;100.00;100789.78;2084692;28;20188;-67
2024/01/18 02:02:58;;;;;;;9.57;5.50;;;;;;;4.07;100.00;100789.03;2087073;28;20696;-68
2024/01/18 02:03:59;;;;;;;10.80;5.53;;;;;;;3.98;100.00;100788.59;2083266;28;20782;-67
2024/01/18 02:05:00;;;;;;;8.33;4.77;;;;;;;3.91;100.00;100788.56;2084895;28;20560;-67
2024/01/18 02:06:02;;;;;;;11.95;5.68;;;;;;;3.97;100.00;100784.28;2085013;28;20238;-67
2024/01/18 02:07:03;;;;;;;8.13;5.25;;;;;;;3.94;100.00;100769.38;2084450;28;20649;-67
2024/01/18 02:08:04;;;;;;;8.25;5.13;;;;;;;4.00;100.00;100770.56;2084292;28;20204;-67
2024/01/18 02:09:05;;;;;;;10.32;5.25;;;;;;;3.97;100.00;100768.63;2086974;28;20203;-67
2024/01/18 02:10:09;;;;;;;10.30;5.50;;;;;;;4.00;100.00;100775.28;2085110;28;20711;-67
2024/01/18 02:11:10;;;;;;;9.65;5.68;;;;;;;4.04;100.00;100773.34;2083723;28;20288;-68
2024/01/18 02:12:11;;;;;;;7.80;5.07;;;;;;;4.02;100.00;100765.50;2085222;28;20258;-68
2024/01/18 02:13:13;;;;;;;9.00;5.28;;;;;;;4.15;100.00;100765.97;2084950;28;20224;-68
2024/01/18 02:14:13;;;;;;;10.90;5.40;;;;;;;4.14;100.00;100759.69;2083479;28;20550;-68
2024/01/18 02:15:14;;;;;;;9.30;5.03;;;;;;;3.61;100.00;100681.09;2086339;28;20219;-67
2024/01/18 02:16:14;;;;;;;9.10;5.60;;;;;;;3.92;100.00;100719.63;2085420;28;20515;-67
2024/01/18 02:17:16;;;;;;;10.10;5.60;;;;;;;4.22;100.00;100755.81;2083648;28;20736;-67
2024/01/18 02:18:16;;;;;;;8.02;5.00;;;;;;;4.23;100.00;100746.41;2084658;28;20702;-67
2024/01/18 02:19:17;;;;;;;9.40;5.23;;;;;;;4.23;100.00;100753.84;2085394;28;20332;-67
2024/01/18 02:20:17;;;;;;;9.60;5.70;;;;;;;4.25;100.00;100754.25;2084669;28;20184;-67
2024/01/18 02:21:18;;;;;;;9.17;5.30;;;;;;;4.30;100.00;100760.13;2085729;28;20184;-68
2024/01/18 02:22:22;;;;;;;10.90;5.60;;;;;;;4.36;100.00;100763.28;2086147;28;20199;-67
2024/01/18 02:23:24;;;;;;;11.95;6.13;;;;;;;4.36;100.00;100764.06;2084602;28;20565;-68
2024/01/18 02:24:48;;;;;;;12.18;5.53;;;;;;;4.39;100.00;100754.28;2083777;28;20224;-67
2024/01/18 02:25:48;;;;;;;11.82;5.53;;;;;;;3.87;100.00;100665.19;2085437;28;20210;-68
2024/01/18 02:26:49;;;;;;;9.90;4.60;;;;;;;4.48;100.00;100743.72;2086256;28;20649;-68
2024/01/18 02:27:53;;;;;;;7.80;4.83;;;;;;;4.51;100.00;100749.22;2085653;28;20245;-67
2024/01/18 02:28:57;;;;;;;8.80;5.25;;;;;;;4.53;100.00;100749.63;2086249;28;20238;-67
2024/01/18 02:29:58;;;;;;;8.88;5.20;;;;;;;4.55;100.00;100743.72;2085452;28;20189;-68
2024/01/18 02:30:58;;;;;;;9.07;4.93;;;;;;;4.53;100.00;100744.16;2086648;28;20182;-68
2024/01/18 02:31:59;;;;;;;12.47;5.13;;;;;;;4.61;100.00;100745.72;2086895;28;20201;-67
2024/01/18 02:32:59;;;;;;;7.97;5.27;;;;;;;4.63;100.00;100746.13;2086500;28;20192;-68
2024/01/18 02:34:00;;;;;;;10.17;5.47;;;;;;;4.66;100.00;100747.31;2086266;28;20735;-67
2024/01/18 02:35:01;;;;;;;7.57;4.90;;;;;;;4.70;100.00;100740.63;2086150;28;20705;-67
2024/01/18 02:36:01;;;;;;;8.67;5.00;;;;;;;4.67;100.00;100740.63;2085725;28;20195;-68
2024/01/18 02:37:02;;;;;;;9.30;5.33;;;;;;;4.69;100.00;100739.06;2087795;28;20589;-68
2024/01/18 02:38:02;;;;;;;11.87;5.37;;;;;;;4.69;100.00;100741.81;2086211;28;20195;-67
2024/01/18 02:39:03;;;;;;;11.57;6.07;;;;;;;4.77;100.00;100754.38;2086509;28;20184;-68
2024/01/18 02:40:05;;;;;;;9.67;5.33;;;;;;;4.79;100.00;100738.31;2086181;28;20715;-67
2024/01/18 02:41:06;;;;;;;10.57;5.80;;;;;;;4.85;100.00;100735.94;2085874;28;20979;-67
2024/01/18 02:42:06;;;;;;;10.87;5.73;;;;;;;4.84;100.00;100739.88;2086309;28;20262;-67
2024/01/18 02:43:07;;;;;;;7.87;5.40;;;;;;;4.83;100.00;100741.81;2088614;28;20188;-67
2024/01/18 02:44:08;;;;;;;10.80;5.83;;;;;;;4.39;100.00;100669.22;2086062;28;20331;-67
2024/01/18 02:45:09;;;;;;;9.80;5.73;;;;;;;4.84;100.00;100737.13;2085945;28;20303;-68
2024/01/18 02:46:09;;;;;;;12.13;5.83;;;;;;;4.63;100.00;100704.97;2086479;28;20275;-68
2024/01/18 02:47:11;;;;;;;10.13;5.43;;;;;;;4.71;100.00;100712.00;2085339;28;20202;-67
2024/01/18 02:48:12;;;;;;;9.90;5.93;;;;;;;4.86;100.00;100737.50;2085612;28;20576;-68
2024/01/18 02:49:12;;;;;;;9.13;5.20;;;;;;;4.83;100.00;100722.59;2088075;28;20224;-67
2024/01/18 02:50:13;;;;;;;9.13;5.50;;;;;;;4.86;100.00;100726.53;2087282;28;20185;-67
2024/01/18 02:51:13;;;;;;;10.23;5.47;;;;;;;4.60;100.00;100678.28;2086081;28;20262;-67
2024/01/18 02:52:14;;;;;;;12.33;5.80;;;;;;;3.69;100.00;100546.47;2086302;28;20246;-67
2024/01/18 02:53:14;;;;;;;9.93;5.70;;;;;;;4.87;100.00;100720.66;2086724;28;20212;-67
2024/01/18 02:54:15;;;;;;;11.47;6.57;;;;;;;4.86;100.00;100710.06;2085344;28;20176;-67
2024/01/18 02:55:17;;;;;;;9.37;5.30;;;;;;;4.91;100.00;100720.66;2088631;28;20215;-67
2024/01/18 02:56:19;;;;;;;11.02;6.63;;;;;;;4.37;100.00;100639.44;2087600;28;20186;-67
2024/01/18 02:57:19;;;;;;;13.75;6.35;;;;;;;4.98;100.00;100718.69;2085493;28;20192;-67
2024/01/18 02:58:20;;;;;;;10.97;5.40;;;;;;;4.97;100.00;100716.34;2086680;28;20200;-67
2024/01/18 02:59:20;;;;;;;10.33;5.93;;;;;;;5.01;100.00;100717.13;2085449;28;20197;-67
2024/01/18 03:00:21;;;;;;;9.27;5.50;;;;;;;5.02;100.00;100715.97;2085837;28;20267;-67
2024/01/18 03:01:21;;;;;;;13.37;5.73;;;;;;;5.03;100.00;100706.53;2086871;28;20685;-68
2024/01/18 03:02:22;;;;;;;11.07;5.93;;;;;;;5.04;100.00;100697.91;2087477;28;20196;-67
2024/01/18 03:03:22;;;;;;;8.03;5.07;;;;;;;5.03;100.00;100695.56;2085925;28;20190;-67
2024/01/18 03:04:23;;;;;;;10.63;5.57;;;;;;;5.03;100.00;100696.31;2085780;28;20266;-67
2024/01/18 03:05:23;;;;;;;9.50;5.67;;;;;;;5.01;100.00;100693.19;2086519;28;20210;-67
2024/01/18 03:06:24;;;;;;;11.13;5.43;;;;;;;4.99;100.00;100687.31;2086053;28;20232;-67
2024/01/18 03:07:24;;;;;;;10.63;5.93;;;;;;;4.94;100.00;100700.66;2087636;28;20924;-67
2024/01/18 03:08:25;;;;;;;11.40;5.90;;;;;;;5.01;100.00;100698.69;2087174;28;20195;-68
2024/01/18 03:09:26;;;;;;;9.53;5.53;;;;;;;5.04;100.00;100695.16;2086158;28;20193;-67
2024/01/18 03:10:26;;;;;;;10.27;5.90;;;;;;;4.76;100.00;100659.47;2085889;28;20214;-67
2024/01/18 03:11:27;;;;;;;9.37;5.37;;;;;;;5.00;100.00;100686.13;2085343;28;20206;-67
2024/01/18 03:12:27;;;;;;;9.83;5.87;;;;;;;5.02;100.00;100686.53;2086038;28;20189;-67
2024/01/18 03:13:27;;;;;;;11.07;5.60;;;;;;;4.98;100.00;100673.97;2087976;28;20173;-67
2024/01/18 03:14:28;;;;;;;11.97;5.63;;;;;;;5.01;100.00;100679.47;2084951;28;20193;-67
2024/01/18 03:15:28;;;;;;;9.83;5.83;;;;;;;5.00;100.00;100668.88;2086280;28;20189;-67
2024/01/18 03:16:29;;;;;;;9.97;5.53;;;;;;;5.04;100.00;100670.44;2085617;28;20196;-67
2024/01/18 03:17:29;;;;;;;9.50;5.07;;;;;;;5.05;100.00;100673.97;2085323;28;20396;-67
2024/01/18 03:18:31;;;;;;;10.73;5.67;;;;;;;5.06;100.00;100675.53;2085875;28;20192;-67
2024/01/18 03:19:32;;;;;;;8.68;5.15;;;;;;;4.92;100.00;100648.88;2088199;28;20679;-67
2024/01/18 03:20:32;;;;;;;11.37;5.23;;;;;;;5.09;100.00;100670.06;2085092;28;20878;-67
2024/01/18 03:21:33;;;;;;;11.60;6.00;;;;;;;5.07;100.00;100666.91;2086151;28;21842;-67
2024/01/18 03:22:34;;;;;;;8.13;4.77;;;;;;;4.41;100.00;100566.13;2085569;28;20197;-67
2024/01/18 03:23:35;;;;;;;13.45;7.03;;;;;;;5.03;100.00;100668.09;2085201;28;20217;-67
2024/01/18 03:24:35;;;;;;;9.13;6.00;;;;;;;5.08;100.00;100675.94;2085288;28;20188;-67
2024/01/18 03:25:36;;;;;;;9.87;4.87;;;;;;;5.05;100.00;100669.28;2087448;28;20196;-67
2024/01/18 03:26:36;;;;;;;11.07;5.80;;;;;;;5.06;100.00;100665.34;2086205;28;20257;-67
2024/01/18 03:27:37;;;;;;;11.37;5.87;;;;;;;5.06;100.00;100668.09;2085512;28;20200;-67
2024/01/18 03:28:38;;;;;;;10.93;6.57;;;;;;;4.23;100.00;100542.63;2084834;28;20229;-68
2024/01/18 03:29:38;;;;;;;9.43;6.00;;;;;;;5.06;100.00;100672.78;2085111;28;20208;-67
2024/01/18 03:30:40;;;;;;;9.50;5.77;;;;;;;5.00;100.00;100661.44;2084648;28;20740;-67
2024/01/18 03:31:40;;;;;;;11.73;6.13;;;;;;;5.01;100.00;100665.72;2088010;28;20187;-68
2024/01/18 03:32:41;;;;;;;12.47;5.67;;;;;;;4.91;100.00;100647.31;2085641;28;20188;-67
2024/01/18 03:33:41;;;;;;;8.00;5.53;;;;;;;5.05;100.00;100668.47;2085582;28;20194;-67
2024/01/18 03:34:42;;;;;;;11.73;5.63;;;;;;;5.04;100.00;100669.66;2085807;28;20192;-67
2024/01/18 03:35:42;;;;;;;9.97;6.07;;;;;;;5.02;100.00;100675.53;2085379;28;20200;-67
2024/01/18 03:36:43;;;;;;;13.23;5.87;;;;;;;5.01;100.00;100679.47;2085676;28;20187;-67
2024/01/18 03:37:44;;;;;;;9.53;6.10;;;;;;;4.94;100.00;100675.94;2087419;28;20240;-67
2024/01/18 03:38:44;;;;;;;10.07;6.00;;;;;;;4.97;100.00;100684.16;2085340;28;20285;-67
2024/01/18 03:39:45;;;;;;;9.53;5.43;;;;;;;4.81;100.00;100680.25;2085469;28;20196;-67
2024/01/18 03:40:47;;;;;;;11.53;5.93;;;;;;;4.72;100.00;100686.13;2085376;28;20228;-67
2024/01/18 03:41:47;;;;;;;9.88;6.05;;;;;;;4.75;100.00;100684.56;2085257;28;20742;-67
2024/01/18 03:42:48;;;;;;;10.07;5.40;;;;;;;4.78;100.00;100678.28;2085882;28;20651;-67
2024/01/18 03:43:48;;;;;;;10.33;5.90;;;;;;;4.70;100.00;100685.75;2086816;28;20208;-67
2024/01/18 03:44:49;;;;;;;10.43;6.20;;;;;;;4.75;100.00;100676.31;2085401;28;20196;-67
2024/01/18 03:45:49;;;;;;;12.83;6.13;;;;;;;4.73;100.00;100681.44;2085684;28;20630;-68
2024/01/18 03:46:50;;;;;;;10.90;6.03;;;;;;;4.64;100.00;100678.28;2085794;28;20231;-67
2024/01/18 03:47:50;;;;;;;10.17;5.97;;;;;;;4.64;100.00;100673.59;2084897;28;20199;-68
2024/01/18 03:48:51;;;;;;;9.63;5.90;;;;;;;4.56;100.00;100671.22;2085601;28;20300;-67
2024/01/18 03:49:51;;;;;;;7.27;5.10;;;;;;;4.62;100.00;100675.16;2087811;28;20180;-67
2024/01/18 03:50:52;;;;;;;9.37;6.13;;;;;;;4.62;100.00;100661.44;2085084;28;20242;-67
2024/01/18 03:51:52;;;;;;;8.60;5.27;;;;;;;4.53;100.00;100655.53;2085503;28;20191;-67
2024/01/18 03:52:53;;;;;;;11.47;5.83;;;;;;;4.55;100.00;100653.97;2085803;28;20199;-67
2024/01/18 03:53:53;;;;;;;10.73;6.10;;;;;;;4.55;100.00;100653.97;2085672;28;20687;-67
2024/01/18 03:54:54;;;;;;;9.13;5.53;;;;;;;4.54;100.00;100651.59;2085557;28;20411;-67
2024/01/18 03:55:54;;;;;;;10.33;5.80;;;;;;;4.55;100.00;100647.69;2087717;28;20185;-67
2024/01/18 03:56:55;;;;;;;12.40;5.80;;;;;;;4.53;100.00;100644.56;2085483;28;20194;-67
2024/01/18 03:57:57;;;;;;;12.63;6.13;;;;;;;4.61;100.00;100659.88;2084535;28;20184;-67
2024/01/18 03:58:58;;;;;;;8.30;5.10;;;;;;;4.64;100.00;100653.56;2086445;28;20184;-67
2024/01/18 03:59:58;;;;;;;9.57;5.90;;;;;;;4.65;100.00;100653.19;2084991;28;20295;-67
2024/01/18 04:00:59;;;;;;;10.80;6.37;;;;;;;4.68;100.00;100646.94;2084942;28;20660;-68
2024/01/18 04:01:59;;;;;;;11.83;5.83;;;;;;;4.72;100.00;100646.91;2087632;28;20693;-67
2024/01/18 04:03:00;;;;;;;11.93;6.40;;;;;;;4.71;100.00;100648.88;2085011;28;20181;-68
2024/01/18 04:04:00;;;;;;;11.27;5.87;;;;;;;4.73;100.00;100643.00;2085557;28;20709;-68
2024/01/18 04:05:01;;;;;;;12.13;7.63;;;;;;;4.76;100.00;100631.22;2085017;28;20194;-67
2024/01/18 04:06:01;;;;;;;11.10;6.57;;;;;;;4.77;100.00;100635.56;2084943;28;20193;-67
2024/01/18 04:07:02;;;;;;;11.20;6.17;;;;;;;4.80;100.00;100630.06;2084737;28;20181;-67
2024/01/18 04:08:03;;;;;;;9.70;5.57;;;;;;;4.79;100.00;100636.72;2087781;28;20184;-68
2024/01/18 04:09:05;;;;;;;9.80;6.00;;;;;;;4.80;100.00;100632.00;2085638;28;20187;-67
2024/01/18 04:10:07;;;;;;;10.90;5.47;;;;;;;4.21;100.00;100532.03;2085466;28;20499;-67
2024/01/18 04:11:08;;;;;;;11.98;5.93;;;;;;;4.88;100.00;100631.59;2084851;28;20223;-68
2024/01/18 04:12:08;;;;;;;9.93;5.30;;;;;;;4.91;100.00;100624.53;2084748;28;20761;-68
2024/01/18 04:13:09;;;;;;;11.67;6.50;;;;;;;4.93;100.00;100620.22;2085350;28;20185;-68
2024/01/18 04:14:09;;;;;;;12.43;5.90;;;;;;;4.94;100.00;100615.53;2087191;28;20180;-68
2024/01/18 04:15:10;;;;;;;10.60;5.67;;;;;;;3.98;100.00;100468.59;2085633;28;20271;-67
2024/01/18 04:16:11;;;;;;;9.87;5.47;;;;;;;4.91;100.00;100622.59;2085361;28;20197;-67
2024/01/18 04:17:12;;;;;;;11.67;6.77;;;;;;;4.89;100.00;100626.91;2084986;28;20647;-68
2024/01/18 04:18:13;;;;;;;11.57;5.80;;;;;;;4.90;100.00;100618.28;2085615;28;20581;-67
2024/01/18 04:19:13;;;;;;;9.53;5.80;;;;;;;4.92;100.00;100620.63;2085221;28;20176;-67
2024/01/18 04:20:17;;;;;;;9.43;5.40;;;;;;;4.50;100.00;100566.53;2087458;28;20176;-67
2024/01/18 04:21:17;;;;;;;11.68;6.43;;;;;;;4.80;100.00;100621.81;2086726;28;20300;-67
2024/01/18 04:22:18;;;;;;;11.37;5.93;;;;;;;4.87;100.00;100624.53;2085330;28;20708;-68
2024/01/18 04:23:20;;;;;;;9.93;5.10;;;;;;;4.29;100.00;100541.06;2085173;28;20203;-67
2024/01/18 04:24:20;;;;;;;10.35;5.68;;;;;;;4.85;100.00;100626.91;2085202;28;20192;-67
2024/01/18 04:25:21;;;;;;;8.93;6.20;;;;;;;4.56;100.00;100575.94;2085546;28;20188;-67
2024/01/18 04:26:22;;;;;;;11.47;5.90;;;;;;;4.85;100.00;100617.88;2086192;28;20185;-67
2024/01/18 04:27:23;;;;;;;12.07;6.32;;;;;;;4.86;100.00;100620.25;2085535;28;20196;-68
2024/01/18 04:28:23;;;;;;;10.10;5.27;;;;;;;4.86;100.00;100617.50;2085574;28;20195;-67
2024/01/18 04:29:24;;;;;;;9.77;5.90;;;;;;;4.75;100.00;100600.25;2084984;28;20792;-67
2024/01/18 04:30:24;;;;;;;14.23;6.13;;;;;;;4.87;100.00;100610.81;2076245;28;20741;-68
2024/01/18 04:31:25;;;;;;;13.33;6.43;;;;;;;4.90;100.00;100607.28;2084857;28;20559;-68
2024/01/18 04:32:26;;;;;;;9.93;5.93;;;;;;;4.92;100.00;100607.66;2086403;28;20437;-68
2024/01/18 04:33:27;;;;;;;12.30;5.57;;;;;;;4.91;100.00;100611.59;2094341;28;20252;-67
2024/01/18 04:34:27;;;;;;;9.03;5.17;;;;;;;4.73;100.00;100579.84;2092427;28;20191;-68
2024/01/18 04:35:27;;;;;;;10.17;5.60;;;;;;;4.92;100.00;100604.94;2084479;28;20446;-68
2024/01/18 04:36:28;;;;;;;9.77;5.37;;;;;;;4.90;100.00;100610.03;2085245;28;20281;-67
2024/01/18 04:37:29;;;;;;;11.43;5.37;;;;;;;4.89;100.00;100616.72;2084047;28;20184;-67
2024/01/18 04:38:29;;;;;;;14.97;6.00;;;;;;;4.89;100.00;100616.72;2086700;28;20200;-67
2024/01/18 04:39:30;;;;;;;10.23;5.27;;;;;;;4.88;100.00;100615.13;2086810;28;20201;-68
2024/01/18 04:40:30;;;;;;;10.47;5.93;;;;;;;4.87;100.00;100610.06;2084469;28;20219;-67